Time;durP1;ratioP1;P1;durP2;ratioP2;P2;SDS_P1;SDS_P2;PMS_P1;PMS_P2;Temp;Humidity;BMP_temperature;BMP_pressure;BME280_temperature;BME280_humidity;BME280_pressure;Samples;Min_cycle;Max_cycle;Signal;HPM_P1;HPM_P2
2023/06/16 00:01:15;;;;;;;9.77;8.30;;;17.50;99.90;;;;;;5039850;28;20464;-73
2023/06/16 00:03:43;;;;;;;9.18;8.27;;;17.50;99.90;;;;;;5043725;28;21030;-73
2023/06/16 00:06:13;;;;;;;8.70;7.83;;;17.50;99.90;;;;;;5045422;28;20661;-73
2023/06/16 00:08:42;;;;;;;10.60;9.47;;;17.50;99.90;;;;;;5044175;28;20926;-74
2023/06/16 00:11:09;;;;;;;9.47;8.53;;;17.50;99.90;;;;;;5035394;28;20485;-74
2023/06/16 00:13:36;;;;;;;7.97;7.17;;;17.50;99.90;;;;;;5047226;28;20464;-73
2023/06/16 00:16:03;;;;;;;9.53;8.37;;;17.50;99.90;;;;;;5046134;28;22178;-72
2023/06/16 00:18:31;;;;;;;16.55;9.40;;;17.50;99.90;;;;;;5029487;28;20466;-73
2023/06/16 00:21:01;;;;;;;10.30;8.67;;;17.50;99.90;;;;;;5040105;28;20215;-73
2023/06/16 00:23:29;;;;;;;9.07;8.17;;;17.60;99.90;;;;;;5030377;28;20473;-74
2023/06/16 00:25:57;;;;;;;10.07;9.00;;;17.50;99.90;;;;;;5040140;28;20871;-74
2023/06/16 00:28:24;;;;;;;9.67;8.67;;;17.50;99.90;;;;;;5037133;28;21581;-71
2023/06/16 00:30:51;;;;;;;10.20;9.27;;;17.60;99.90;;;;;;5039497;28;20466;-72
2023/06/16 00:33:18;;;;;;;9.97;9.10;;;17.50;99.90;;;;;;5031695;28;20980;-72
2023/06/16 00:35:45;;;;;;;9.45;8.65;;;17.50;99.90;;;;;;5040688;28;20524;-74
2023/06/16 00:38:12;;;;;;;13.20;9.37;;;17.40;99.90;;;;;;5045028;28;20294;-72
2023/06/16 00:40:39;;;;;;;10.67;9.40;;;17.40;99.90;;;;;;5051102;28;20877;-73
2023/06/16 00:43:08;;;;;;;12.32;9.18;;;17.40;99.90;;;;;;5043202;28;20501;-73
2023/06/16 00:45:35;;;;;;;9.73;8.70;;;17.40;99.90;;;;;;5036893;28;20230;-73
2023/06/16 00:48:02;;;;;;;9.57;8.77;;;17.40;99.90;;;;;;5045005;28;20989;-73
2023/06/16 00:50:29;;;;;;;11.68;10.50;;;17.30;99.90;;;;;;5039823;28;20493;-73
2023/06/16 00:52:56;;;;;;;12.47;10.83;;;17.30;99.90;;;;;;5039184;28;20231;-71
2023/06/16 00:55:23;;;;;;;13.40;9.77;;;17.30;99.90;;;;;;5041805;28;20453;-72
2023/06/16 00:57:52;;;;;;;11.23;10.13;;;17.30;99.90;;;;;;5051276;28;20575;-73
2023/06/16 01:00:21;;;;;;;13.13;11.00;;;17.30;99.90;;;;;;5039991;28;20446;-71
2023/06/16 01:02:50;;;;;;;9.57;8.68;;;17.30;99.90;;;;;;5037249;28;20460;-72
2023/06/16 01:05:20;;;;;;;13.03;11.33;;;17.30;99.90;;;;;;5034652;28;20214;-74
2023/06/16 01:07:59;;;;;;;12.43;11.33;;;17.20;99.90;;;;;;5039573;28;20481;-72
2023/06/16 01:10:32;;;;;;;13.30;12.00;;;17.30;99.90;;;;;;5036408;28;20443;-72
2023/06/16 01:13:07;;;;;;;13.20;12.10;;;17.30;99.90;;;;;;5035881;28;20919;-72
2023/06/16 01:15:37;;;;;;;14.67;13.17;;;17.30;99.90;;;;;;5025212;28;20449;-74
2023/06/16 01:18:06;;;;;;;14.40;11.40;;;17.30;99.90;;;;;;5040289;28;20532;-73
2023/06/16 01:20:39;;;;;;;13.90;12.40;;;17.30;99.90;;;;;;5038529;28;20450;-71
2023/06/16 01:23:15;;;;;;;12.70;11.40;;;17.30;99.90;;;;;;5029376;28;20889;-72
2023/06/16 01:25:48;;;;;;;16.25;12.35;;;17.30;99.90;;;;;;5018292;28;20476;-73
2023/06/16 01:28:18;;;;;;;14.80;13.20;;;17.40;99.90;;;;;;5038613;28;20198;-72
2023/06/16 01:30:50;;;;;;;15.68;14.13;;;17.40;99.90;;;;;;5037411;28;20496;-70
2023/06/16 01:33:20;;;;;;;15.35;13.73;;;17.30;99.90;;;;;;5034562;28;20596;-72
2023/06/16 01:35:48;;;;;;;15.43;14.00;;;17.30;99.90;;;;;;5039096;28;20222;-73
2023/06/16 01:38:16;;;;;;;15.75;13.88;;;17.30;99.90;;;;;;5045623;28;20664;-73
2023/06/16 01:40:45;;;;;;;14.15;12.93;;;17.30;99.90;;;;;;5039322;28;20203;-73
2023/06/16 01:43:13;;;;;;;15.70;14.20;;;17.30;99.90;;;;;;5043201;28;20218;-74
2023/06/16 01:45:40;;;;;;;15.30;12.95;;;17.30;99.90;;;;;;5044233;28;20495;-73
2023/06/16 01:48:08;;;;;;;15.63;14.00;;;17.30;99.90;;;;;;5036394;28;20282;-73
2023/06/16 01:50:36;;;;;;;16.60;14.82;;;17.20;99.90;;;;;;5029857;28;20534;-72
2023/06/16 01:53:03;;;;;;;17.93;16.17;;;17.20;99.90;;;;;;5035389;28;20228;-73
2023/06/16 01:55:29;;;;;;;15.25;13.75;;;17.20;99.90;;;;;;5031769;28;20553;-72
2023/06/16 01:57:58;;;;;;;18.13;16.23;;;17.10;99.90;;;;;;5038808;28;20222;-71
2023/06/16 02:00:28;;;;;;;18.93;17.07;;;17.20;99.90;;;;;;5038584;28;21043;-71
2023/06/16 02:03:01;;;;;;;19.10;15.83;;;17.10;99.90;;;;;;5045248;28;20553;-71
2023/06/16 02:05:30;;;;;;;18.75;16.83;;;17.00;99.90;;;;;;5047790;28;20452;-71
2023/06/16 02:08:00;;;;;;;19.77;15.55;;;17.00;99.90;;;;;;5039873;28;20217;-72
2023/06/16 02:10:28;;;;;;;18.65;16.75;;;17.00;99.90;;;;;;5029918;28;20202;-72
2023/06/16 02:12:57;;;;;;;19.60;15.35;;;17.00;99.90;;;;;;5035757;28;20319;-73
2023/06/16 02:15:24;;;;;;;21.83;17.08;;;17.00;99.90;;;;;;5029234;28;20292;-72
2023/06/16 02:17:52;;;;;;;16.38;14.68;;;16.90;99.90;;;;;;5041940;28;20202;-72
2023/06/16 02:20:19;;;;;;;17.85;16.05;;;16.90;99.90;;;;;;5038173;28;20204;-72
2023/06/16 02:22:46;;;;;;;19.70;17.42;;;16.90;99.90;;;;;;5031776;28;20226;-72
2023/06/16 02:25:13;;;;;;;18.58;16.45;;;16.90;99.90;;;;;;5039546;28;20565;-72
2023/06/16 02:27:40;;;;;;;16.92;14.40;;;16.90;99.90;;;;;;5035385;28;20203;-73
2023/06/16 02:30:11;;;;;;;22.83;19.10;;;16.90;99.90;;;;;;5037625;28;20210;-73
2023/06/16 02:32:39;;;;;;;21.33;17.05;;;16.90;99.90;;;;;;5041970;28;20540;-72
2023/06/16 02:35:07;;;;;;;18.50;16.70;;;16.90;99.90;;;;;;5034280;28;20302;-73
2023/06/16 02:37:36;;;;;;;18.30;16.50;;;16.90;99.90;;;;;;5037119;28;20204;-73
2023/06/16 02:40:05;;;;;;;19.55;15.93;;;16.90;99.90;;;;;;5037379;28;20551;-73
2023/06/16 02:42:32;;;;;;;22.73;18.50;;;16.90;99.90;;;;;;5038088;28;20301;-72
2023/06/16 02:44:59;;;;;;;17.80;15.47;;;16.90;99.90;;;;;;5038596;28;20450;-73
2023/06/16 02:47:27;;;;;;;18.73;16.50;;;16.90;99.90;;;;;;5037429;28;20528;-72
2023/06/16 02:49:55;;;;;;;20.27;16.30;;;16.90;99.90;;;;;;5031826;28;20592;-73
2023/06/16 02:52:21;;;;;;;22.42;17.33;;;16.90;99.90;;;;;;5034398;28;20498;-72
2023/06/16 02:54:48;;;;;;;19.77;17.58;;;16.90;99.90;;;;;;5035379;28;20206;-72
2023/06/16 02:57:15;;;;;;;20.25;17.10;;;16.90;99.90;;;;;;5037200;28;20214;-72
2023/06/16 02:59:42;;;;;;;19.25;17.33;;;16.90;99.90;;;;;;5034822;28;20194;-71
2023/06/16 03:02:09;;;;;;;20.85;15.73;;;16.90;99.90;;;;;;5028749;28;20195;-72
2023/06/16 03:04:38;;;;;;;18.55;16.58;;;16.90;99.90;;;;;;5037079;28;20207;-72
2023/06/16 03:07:05;;;;;;;19.13;17.02;;;16.90;99.90;;;;;;5039504;28;20571;-73
2023/06/16 03:09:32;;;;;;;21.77;19.30;;;16.90;99.90;;;;;;5043391;28;20219;-72
2023/06/16 03:12:00;;;;;;;22.00;16.70;;;16.90;99.90;;;;;;5036697;28;20268;-73
2023/06/16 03:14:26;;;;;;;20.27;17.45;;;17.10;99.90;;;;;;5039379;28;20291;-74
2023/06/16 03:16:55;;;;;;;19.92;17.77;;;16.90;99.90;;;;;;5042437;28;20259;-74
2023/06/16 03:19:22;;;;;;;19.33;17.27;;;16.90;99.90;;;;;;5044557;28;20194;-73
2023/06/16 03:21:50;;;;;;;21.48;18.92;;;16.90;99.90;;;;;;5045768;28;20248;-73
2023/06/16 03:24:19;;;;;;;19.83;17.52;;;16.90;99.90;;;;;;5032556;28;20221;-71
2023/06/16 03:26:46;;;;;;;20.75;18.65;;;16.90;99.90;;;;;;5034809;28;20204;-72
2023/06/16 03:29:13;;;;;;;19.08;15.95;;;16.90;99.90;;;;;;5033736;28;20230;-72
2023/06/16 03:31:41;;;;;;;22.48;18.58;;;17.00;99.90;;;;;;5026162;28;20283;-72
2023/06/16 03:34:08;;;;;;;20.75;17.88;;;17.10;99.90;;;;;;5038171;28;20258;-72
2023/06/16 03:36:36;;;;;;;20.05;17.80;;;17.10;99.90;;;;;;5032671;28;20291;-72
2023/06/16 03:39:05;;;;;;;18.07;16.33;;;17.10;99.90;;;;;;5029146;28;20208;-72
2023/06/16 03:41:32;;;;;;;20.33;16.77;;;17.10;99.90;;;;;;5035235;28;20458;-74
2023/06/16 03:43:59;;;;;;;21.03;17.93;;;17.20;99.90;;;;;;5026886;28;20219;-71
2023/06/16 03:46:28;;;;;;;19.57;17.47;;;17.30;99.90;;;;;;5036093;28;20884;-72
2023/06/16 03:48:55;;;;;;;23.33;19.10;;;17.20;99.90;;;;;;5029696;28;20466;-71
2023/06/16 03:51:24;;;;;;;20.23;16.93;;;17.20;99.90;;;;;;5037929;28;20925;-72
2023/06/16 03:53:51;;;;;;;20.52;18.52;;;17.20;99.90;;;;;;5031579;28;20574;-71
2023/06/16 03:56:19;;;;;;;21.05;18.60;;;17.20;99.90;;;;;;5036658;28;20666;-73
2023/06/16 03:58:48;;;;;;;22.45;20.05;;;17.20;99.90;;;;;;5028632;28;20211;-73
2023/06/16 04:01:15;;;;;;;28.20;21.33;;;17.10;99.90;;;;;;5027603;28;20221;-73
2023/06/16 04:03:42;;;;;;;20.90;16.20;;;17.10;99.90;;;;;;5038616;28;20230;-74
2023/06/16 04:06:08;;;;;;;22.77;20.17;;;17.20;99.90;;;;;;5020521;28;20280;-72
2023/06/16 04:08:36;;;;;;;28.55;22.08;;;17.20;99.90;;;;;;5035816;28;20445;-71
2023/06/16 04:11:03;;;;;;;25.45;22.02;;;17.20;99.90;;;;;;5041741;28;20617;-74
2023/06/16 04:13:31;;;;;;;23.10;20.80;;;17.10;99.90;;;;;;5039606;28;20334;-72
2023/06/16 04:15:59;;;;;;;21.50;18.53;;;17.20;99.90;;;;;;5044144;28;20442;-74
2023/06/16 04:18:27;;;;;;;32.20;21.17;;;17.10;99.90;;;;;;5040853;28;20448;-70
2023/06/16 04:20:54;;;;;;;20.88;18.27;;;17.20;99.90;;;;;;5024791;28;20544;-72
2023/06/16 04:23:20;;;;;;;23.40;21.00;;;17.30;99.90;;;;;;5046221;28;20719;-72
2023/06/16 04:25:48;;;;;;;24.67;22.05;;;17.30;99.90;;;;;;5035987;28;20294;-71
2023/06/16 04:28:14;;;;;;;23.23;20.73;;;17.30;99.90;;;;;;5043679;28;20206;-73
2023/06/16 04:30:43;;;;;;;23.88;21.58;;;17.30;99.90;;;;;;5042258;28;20234;-70
2023/06/16 04:33:11;;;;;;;24.67;22.23;;;17.30;99.90;;;;;;5035144;28;20219;-73
2023/06/16 04:35:38;;;;;;;28.30;21.27;;;17.30;99.90;;;;;;5043599;28;20202;-73
2023/06/16 04:38:07;;;;;;;23.83;21.20;;;17.30;99.90;;;;;;5039493;28;20238;-73
2023/06/16 04:40:34;;;;;;;22.25;19.98;;;17.40;99.90;;;;;;5038800;28;20450;-72
2023/06/16 04:43:01;;;;;;;22.47;19.50;;;17.40;99.90;;;;;;5041820;28;20708;-72
2023/06/16 04:45:28;;;;;;;29.97;21.70;;;17.50;99.90;;;;;;5043410;28;20448;-72
2023/06/16 04:47:56;;;;;;;25.93;19.87;;;17.50;99.90;;;;;;5039359;28;20484;-73
2023/06/16 04:50:23;;;;;;;21.00;19.00;;;17.60;99.90;;;;;;5037830;28;20450;-73
2023/06/16 04:52:50;;;;;;;20.20;17.23;;;17.70;99.90;;;;;;5041320;28;20485;-73
2023/06/16 04:55:17;;;;;;;23.47;19.50;;;17.70;99.90;;;;;;5032760;28;20874;-74
2023/06/16 04:57:44;;;;;;;23.67;18.93;;;17.80;99.90;;;;;;5042895;28;20459;-72
2023/06/16 05:00:12;;;;;;;20.87;18.40;;;18.00;99.90;;;;;;5043298;28;20452;-72
2023/06/16 05:02:40;;;;;;;20.77;17.70;;;18.30;99.90;;;;;;5041768;28;20474;-74
2023/06/16 05:05:09;;;;;;;28.40;20.50;;;18.60;99.90;;;;;;5044063;28;20438;-70
2023/06/16 05:07:37;;;;;;;23.03;20.17;;;18.90;99.90;;;;;;5035232;28;20463;-72
2023/06/16 05:10:04;;;;;;;21.67;16.97;;;19.20;99.90;;;;;;5037744;28;21001;-73
2023/06/16 05:12:32;;;;;;;20.70;18.53;;;19.40;99.90;;;;;;5039740;28;20559;-71
2023/06/16 05:14:59;;;;;;;21.13;19.03;;;19.40;99.90;;;;;;5042079;28;20586;-73
2023/06/16 05:17:26;;;;;;;22.73;19.30;;;19.40;99.90;;;;;;5044996;28;20479;-72
2023/06/16 05:19:53;;;;;;;20.10;17.97;;;19.40;99.90;;;;;;5032997;28;20442;-72
2023/06/16 05:22:23;;;;;;;20.90;18.40;;;19.40;99.90;;;;;;5044327;28;20532;-72
2023/06/16 05:24:53;;;;;;;21.60;17.30;;;19.40;99.90;;;;;;5036433;28;20450;-72
2023/06/16 05:27:23;;;;;;;19.73;17.43;;;19.30;99.90;;;;;;5035757;28;20953;-73
2023/06/16 05:29:50;;;;;;;22.90;20.60;;;19.30;99.90;;;;;;5041230;28;20544;-72
2023/06/16 05:32:19;;;;;;;18.10;16.20;;;19.30;99.90;;;;;;5032483;28;20467;-73
2023/06/16 05:34:46;;;;;;;18.83;16.87;;;19.30;99.90;;;;;;5039607;28;20578;-73
2023/06/16 05:37:15;;;;;;;20.87;17.73;;;19.30;99.90;;;;;;5032228;28;20451;-71
2023/06/16 05:39:43;;;;;;;18.00;15.57;;;19.40;99.90;;;;;;5036473;28;20442;-71
2023/06/16 05:42:11;;;;;;;19.57;17.57;;;19.40;99.90;;;;;;5043715;28;20442;-72
2023/06/16 05:44:38;;;;;;;23.03;17.50;;;19.50;99.90;;;;;;5039965;28;20438;-72
2023/06/16 05:47:06;;;;;;;22.97;18.60;;;19.60;99.90;;;;;;5039472;28;20488;-71
2023/06/16 05:49:32;;;;;;;21.07;18.40;;;19.70;99.90;;;;;;5034464;28;20441;-73
2023/06/16 05:52:01;;;;;;;20.80;16.50;;;19.80;99.90;;;;;;5040835;28;20474;-72
2023/06/16 05:54:28;;;;;;;24.40;17.93;;;19.90;99.90;;;;;;5030909;28;20923;-73
2023/06/16 05:56:57;;;;;;;25.00;17.03;;;20.20;99.90;;;;;;5038794;28;20466;-70
2023/06/16 05:59:24;;;;;;;21.60;17.77;;;20.30;99.90;;;;;;5032441;28;20446;-73
2023/06/16 06:01:51;;;;;;;19.30;16.73;;;20.60;99.90;;;;;;5038525;28;20466;-72
2023/06/16 06:04:21;;;;;;;22.80;16.03;;;20.80;99.90;;;;;;5032596;28;20458;-72
2023/06/16 06:06:49;;;;;;;19.50;15.27;;;21.00;99.90;;;;;;5035141;28;20497;-73
2023/06/16 06:09:16;;;;;;;18.40;14.37;;;21.40;99.90;;;;;;5036380;28;20923;-72
2023/06/16 06:11:43;;;;;;;14.77;13.13;;;21.90;99.90;;;;;;5040561;28;20936;-73
2023/06/16 06:14:12;;;;;;;16.53;13.10;;;22.40;99.90;;;;;;5038748;28;20661;-73
2023/06/16 06:16:39;;;;;;;14.77;13.27;;;22.90;99.90;;;;;;5031680;28;20446;-73
2023/06/16 06:19:06;;;;;;;14.67;13.20;;;24.00;99.90;;;;;;5033298;28;20496;-74
2023/06/16 06:21:36;;;;;;;15.97;12.17;;;25.60;99.90;;;;;;5035863;28;20451;-71
2023/06/16 06:24:02;;;;;;;13.13;11.70;;;25.90;96.50;;;;;;5040425;28;20476;-73
2023/06/16 06:26:30;;;;;;;20.30;16.30;;;25.60;95.80;;;;;;5036610;28;20550;-71
2023/06/16 06:28:56;;;;;;;12.17;11.03;;;25.10;96.10;;;;;;5029280;28;20451;-72
2023/06/16 06:31:25;;;;;;;13.17;11.87;;;24.90;96.90;;;;;;5041841;28;20440;-71
2023/06/16 06:33:52;;;;;;;13.77;12.37;;;24.60;96.90;;;;;;5034087;28;20521;-71
2023/06/16 06:36:22;;;;;;;20.20;12.23;;;25.10;97.10;;;;;;5037723;28;20907;-72
2023/06/16 06:38:50;;;;;;;15.70;12.47;;;26.10;94.40;;;;;;5038078;28;20442;-72
2023/06/16 06:41:17;;;;;;;12.40;11.20;;;27.40;92.20;;;;;;5038380;28;20439;-73
2023/06/16 06:43:44;;;;;;;16.70;12.03;;;28.60;89.70;;;;;;5032660;28;20551;-73
2023/06/16 06:46:11;;;;;;;12.30;11.20;;;29.70;84.60;;;;;;5040441;28;20442;-74
2023/06/16 06:48:39;;;;;;;14.30;11.37;;;30.70;81.00;;;;;;5035849;28;20531;-70
2023/06/16 06:51:06;;;;;;;13.80;12.50;;;31.20;78.60;;;;;;5036711;28;20522;-70
2023/06/16 06:53:33;;;;;;;12.73;10.93;;;31.70;76.90;;;;;;5038251;28;20525;-71
2023/06/16 06:56:00;;;;;;;12.90;11.70;;;32.00;74.50;;;;;;5039210;28;20445;-71
2023/06/16 06:58:27;;;;;;;15.90;14.40;;;32.40;73.40;;;;;;5030861;28;20543;-71
2023/06/16 07:00:54;;;;;;;15.20;14.00;;;32.80;71.70;;;;;;5036277;28;20450;-71
2023/06/16 07:03:21;;;;;;;19.50;17.60;;;33.00;71.20;;;;;;5034557;28;21023;-73
2023/06/16 07:05:49;;;;;;;19.73;16.80;;;32.60;71.50;;;;;;5040889;28;20521;-69
2023/06/16 07:08:16;;;;;;;21.37;15.50;;;32.80;71.70;;;;;;5038110;28;20442;-72
2023/06/16 07:10:42;;;;;;;18.07;16.23;;;32.80;71.20;;;;;;5032793;28;20442;-71
2023/06/16 07:13:09;;;;;;;16.73;15.10;;;33.10;71.30;;;;;;5039557;28;20485;-71
2023/06/16 07:15:36;;;;;;;20.70;16.63;;;33.10;70.70;;;;;;5042230;28;20807;-71
2023/06/16 07:18:03;;;;;;;22.27;15.90;;;33.10;70.30;;;;;;5034243;28;20450;-72
2023/06/16 07:20:30;;;;;;;15.73;14.23;;;33.30;69.80;;;;;;5035006;28;20538;-71
2023/06/16 07:22:59;;;;;;;17.27;15.60;;;33.40;69.20;;;;;;5034028;28;20550;-73
2023/06/16 07:25:26;;;;;;;16.23;14.63;;;33.60;69.20;;;;;;5036003;28;20460;-72
2023/06/16 07:27:53;;;;;;;16.87;12.30;;;33.60;69.20;;;;;;5033791;28;20448;-72
2023/06/16 07:30:20;;;;;;;15.90;14.30;;;33.90;68.60;;;;;;5040781;28;20434;-73
2023/06/16 07:32:49;;;;;;;20.77;12.30;;;33.60;67.60;;;;;;5033778;28;20459;-73
2023/06/16 07:35:16;;;;;;;17.03;13.10;;;33.60;67.80;;;;;;5037074;28;20478;-72
2023/06/16 07:37:43;;;;;;;15.57;11.17;;;33.90;67.50;;;;;;5037902;28;20439;-73
2023/06/16 07:40:13;;;;;;;10.57;9.43;;;33.80;66.20;;;;;;5038748;28;20452;-71
2023/06/16 07:42:40;;;;;;;13.33;9.30;;;33.40;65.30;;;;;;5040424;28;20536;-71
2023/06/16 07:45:08;;;;;;;11.83;10.70;;;33.40;65.80;;;;;;5034397;28;20494;-72
2023/06/16 07:47:35;;;;;;;11.63;10.17;;;33.40;65.10;;;;;;5038569;28;20449;-72
2023/06/16 07:50:02;;;;;;;17.23;9.70;;;33.90;65.80;;;;;;5037305;28;20473;-73
2023/06/16 07:52:30;;;;;;;15.83;10.37;;;34.50;64.80;;;;;;5041628;28;20727;-73
2023/06/16 07:54:56;;;;;;;15.00;10.53;;;34.60;63.60;;;;;;5046959;28;20469;-73
2023/06/16 07:57:25;;;;;;;10.73;9.60;;;34.70;63.90;;;;;;5036689;28;20459;-71
2023/06/16 07:59:52;;;;;;;10.93;9.83;;;34.70;63.00;;;;;;5046721;28;20791;-71
2023/06/16 08:02:20;;;;;;;13.90;9.60;;;35.10;62.20;;;;;;5034426;28;20546;-71
2023/06/16 08:04:47;;;;;;;9.90;9.10;;;35.60;61.60;;;;;;5039240;28;20440;-74
2023/06/16 08:07:14;;;;;;;8.83;7.80;;;36.00;61.00;;;;;;5044162;28;20453;-71
2023/06/16 08:09:40;;;;;;;9.20;8.30;;;35.80;60.20;;;;;;5040792;28;20444;-72
2023/06/16 08:12:10;;;;;;;11.07;9.97;;;35.40;60.30;;;;;;5042552;28;20856;-71
2023/06/16 08:14:38;;;;;;;10.60;9.70;;;35.10;61.00;;;;;;5035691;28;20474;-73
2023/06/16 08:17:06;;;;;;;10.00;9.13;;;35.10;61.40;;;;;;5039905;28;20542;-72
2023/06/16 08:19:32;;;;;;;7.60;6.87;;;35.60;60.80;;;;;;5041905;28;20542;-71
2023/06/16 08:22:00;;;;;;;9.37;8.40;;;35.70;60.40;;;;;;5042879;28;20821;-70
2023/06/16 08:24:27;;;;;;;8.57;7.87;;;35.70;60.00;;;;;;5045051;28;21004;-71
2023/06/16 08:26:55;;;;;;;9.67;8.70;;;35.40;61.40;;;;;;5041345;28;20552;-71
2023/06/16 08:29:22;;;;;;;8.67;7.43;;;35.30;60.50;;;;;;5039251;28;20558;-73
2023/06/16 08:31:50;;;;;;;9.10;8.20;;;35.40;61.00;;;;;;5044579;28;20530;-72
2023/06/16 08:34:17;;;;;;;9.70;8.30;;;35.40;60.70;;;;;;5032713;28;20509;-72
2023/06/16 08:36:44;;;;;;;9.47;8.47;;;35.30;60.40;;;;;;5044473;28;20931;-72
2023/06/16 08:39:11;;;;;;;8.63;7.70;;;35.20;60.80;;;;;;5038308;28;20793;-71
2023/06/16 08:41:38;;;;;;;10.40;7.97;;;34.70;60.40;;;;;;5038692;28;20442;-72
2023/06/16 08:44:08;;;;;;;8.27;6.50;;;34.30;61.20;;;;;;5038746;28;20492;-72
2023/06/16 08:46:36;;;;;;;9.67;8.67;;;34.10;62.30;;;;;;5040183;28;20443;-72
2023/06/16 08:49:05;;;;;;;8.53;7.73;;;33.60;62.60;;;;;;5043065;28;20458;-72
2023/06/16 08:51:34;;;;;;;7.83;7.10;;;32.60;64.50;;;;;;5040482;28;20457;-72
2023/06/16 08:54:07;;;;;;;7.77;7.00;;;31.80;65.90;;;;;;5045117;28;20485;-72
2023/06/16 08:56:34;;;;;;;11.97;8.03;;;31.50;67.30;;;;;;5035504;28;20444;-72
2023/06/16 08:59:03;;;;;;;11.50;7.23;;;31.20;68.90;;;;;;5041101;28;20959;-72
2023/06/16 09:01:33;;;;;;;7.70;6.90;;;31.80;68.60;;;;;;5037346;28;20446;-72
2023/06/16 09:04:00;;;;;;;9.17;7.50;;;32.70;66.80;;;;;;5040147;28;20476;-72
2023/06/16 09:06:29;;;;;;;7.47;6.77;;;33.60;65.20;;;;;;5032965;28;20533;-73
2023/06/16 09:08:56;;;;;;;10.20;6.70;;;34.00;63.80;;;;;;5038383;28;20462;-71
2023/06/16 09:11:23;;;;;;;8.20;7.17;;;34.00;63.00;;;;;;5034992;28;20439;-73
2023/06/16 09:13:52;;;;;;;9.53;7.60;;;33.40;63.20;;;;;;5039603;28;21004;-71
2023/06/16 09:16:21;;;;;;;7.70;6.90;;;32.80;64.30;;;;;;5037442;28;20460;-70
2023/06/16 09:18:49;;;;;;;7.13;6.50;;;32.70;64.90;;;;;;5040685;28;20880;-72
2023/06/16 09:21:20;;;;;;;6.50;5.70;;;33.10;64.90;;;;;;5041470;28;20537;-71
2023/06/16 09:23:57;;;;;;;8.00;7.30;;;33.60;64.40;;;;;;5037336;28;20555;-71
2023/06/16 09:26:29;;;;;;;10.90;6.97;;;34.20;62.70;;;;;;5037614;28;20446;-74
2023/06/16 09:28:57;;;;;;;7.07;6.47;;;34.10;61.50;;;;;;5042002;28;20955;-72
2023/06/16 09:31:27;;;;;;;7.67;6.47;;;33.60;62.50;;;;;;5035624;28;20540;-70
2023/06/16 09:33:54;;;;;;;8.07;6.70;;;33.30;63.70;;;;;;5042136;28;20493;-72
2023/06/16 09:36:27;;;;;;;7.17;6.63;;;33.30;64.00;;;;;;5033048;28;20957;-71
2023/06/16 09:38:56;;;;;;;6.70;6.00;;;33.20;63.40;;;;;;5021076;28;20454;-71
2023/06/16 09:41:23;;;;;;;6.13;5.53;;;32.80;63.00;;;;;;5033964;28;20547;-72
2023/06/16 09:43:51;;;;;;;7.57;6.80;;;32.40;63.80;;;;;;5038573;28;21012;-72
2023/06/16 09:46:19;;;;;;;8.97;8.00;;;32.00;64.30;;;;;;5031765;28;20450;-72
2023/06/16 09:48:48;;;;;;;6.30;5.80;;;31.50;64.70;;;;;;5034057;28;20525;-72
2023/06/16 09:51:18;;;;;;;6.80;6.10;;;31.10;66.20;;;;;;5037233;28;20442;-72
2023/06/16 09:53:46;;;;;;;13.53;6.80;;;30.70;67.20;;;;;;5039143;28;20463;-72
2023/06/16 09:56:15;;;;;;;7.33;6.63;;;30.30;68.20;;;;;;5039659;28;20442;-73
2023/06/16 09:58:42;;;;;;;7.83;7.13;;;30.10;69.10;;;;;;5034907;28;20458;-72
2023/06/16 10:01:10;;;;;;;7.10;6.50;;;29.60;69.80;;;;;;5035783;28;20447;-73
2023/06/16 10:03:39;;;;;;;21.10;6.70;;;29.50;71.30;;;;;;5036539;28;20466;-72
2023/06/16 10:06:13;;;;;;;7.60;6.90;;;29.70;70.20;;;;;;5031371;28;20442;-71
2023/06/16 10:08:40;;;;;;;6.50;5.80;;;30.00;70.20;;;;;;5040415;28;20443;-72
2023/06/16 10:11:10;;;;;;;6.70;5.60;;;30.40;69.80;;;;;;5040649;28;20438;-71
2023/06/16 10:13:41;;;;;;;7.77;6.97;;;31.20;68.50;;;;;;5037153;28;20467;-73
2023/06/16 10:16:11;;;;;;;9.13;7.33;;;31.60;66.60;;;;;;5041799;28;20460;-72
2023/06/16 10:18:41;;;;;;;7.07;6.47;;;32.00;66.50;;;;;;5041795;28;20448;-73
2023/06/16 10:21:10;;;;;;;5.73;5.13;;;32.50;65.60;;;;;;5034981;28;20434;-73
2023/06/16 10:23:37;;;;;;;7.63;5.80;;;32.20;65.10;;;;;;5039756;28;20462;-71
2023/06/16 10:26:05;;;;;;;6.67;6.07;;;32.20;65.10;;;;;;5033336;28;20994;-72
2023/06/16 10:28:35;;;;;;;11.43;6.13;;;32.30;64.70;;;;;;5039792;28;20439;-71
2023/06/16 10:31:04;;;;;;;7.10;6.50;;;32.10;65.10;;;;;;5034840;28;20796;-71
2023/06/16 10:33:51;;;;;;;6.53;5.97;;;31.30;65.80;;;;;;5038485;28;20459;-72
2023/06/16 10:36:23;;;;;;;6.70;6.10;;;30.40;67.70;;;;;;5036398;28;20861;-72
2023/06/16 10:38:59;;;;;;;6.93;6.23;;;29.80;68.80;;;;;;5041760;28;20533;-72
2023/06/16 10:41:29;;;;;;;7.57;6.77;;;29.70;69.60;;;;;;5030453;28;20553;-71
2023/06/16 10:43:55;;;;;;;6.90;6.20;;;29.60;70.40;;;;;;5040766;28;20469;-72
2023/06/16 10:46:25;;;;;;;6.23;5.70;;;29.60;70.30;;;;;;5033612;28;20445;-72
2023/06/16 10:49:18;;;;;;;7.80;6.20;;;29.60;70.70;;;;;;5037538;28;20833;-72
2023/06/16 10:51:50;;;;;;;7.77;7.10;;;29.40;70.80;;;;;;5032661;28;20432;-72
2023/06/16 10:54:35;;;;;;;14.63;6.97;;;29.10;71.60;;;;;;5035421;28;20518;-73
2023/06/16 10:57:06;;;;;;;9.80;7.17;;;28.60;72.40;;;;;;5031205;28;20977;-71
2023/06/16 10:59:53;;;;;;;7.47;6.77;;;28.30;72.30;;;;;;5038913;28;20493;-73
2023/06/16 11:02:24;;;;;;;24.90;8.43;;;28.20;73.60;;;;;;5035582;28;20471;-73
2023/06/16 11:05:09;;;;;;;9.47;7.07;;;28.10;73.60;;;;;;5036357;28;20458;-72
2023/06/16 11:07:38;;;;;;;11.00;6.27;;;28.00;74.80;;;;;;5032393;28;20446;-71
2023/06/16 11:10:06;;;;;;;6.20;5.70;;;27.90;74.60;;;;;;5031990;28;20977;-71
2023/06/16 11:12:33;;;;;;;7.07;6.37;;;27.80;75.20;;;;;;5028520;28;21008;-72
2023/06/16 11:15:00;;;;;;;7.67;6.90;;;27.70;75.60;;;;;;5036709;28;20505;-72
2023/06/16 11:17:29;;;;;;;15.70;7.80;;;27.90;75.90;;;;;;5036102;28;20436;-72
2023/06/16 11:19:57;;;;;;;9.30;5.80;;;27.90;75.20;;;;;;5043282;28;20532;-71
2023/06/16 11:22:31;;;;;;;6.67;6.17;;;28.00;75.00;;;;;;5036978;28;21188;-71
2023/06/16 11:25:00;;;;;;;6.53;5.97;;;28.00;75.00;;;;;;5045285;28;20853;-70
2023/06/16 11:27:27;;;;;;;9.20;7.10;;;28.10;75.10;;;;;;5037357;28;20434;-73
2023/06/16 11:29:56;;;;;;;7.60;7.00;;;28.20;74.40;;;;;;5041178;28;20533;-72
2023/06/16 11:32:24;;;;;;;11.23;10.13;;;28.10;74.30;;;;;;5039806;28;20814;-72
2023/06/16 11:34:55;;;;;;;5.97;5.20;;;28.10;74.80;;;;;;5039671;28;20553;-71
2023/06/16 11:37:22;;;;;;;7.47;6.73;;;28.20;75.40;;;;;;5037410;28;20455;-71
2023/06/16 11:39:49;;;;;;;7.57;6.23;;;28.40;75.00;;;;;;5042927;28;20450;-72
2023/06/16 11:42:16;;;;;;;6.80;6.20;;;28.40;74.90;;;;;;5040058;28;20493;-74
2023/06/16 11:44:44;;;;;;;6.50;6.00;;;28.40;74.80;;;;;;5040745;28;20449;-71
2023/06/16 11:47:12;;;;;;;6.97;6.23;;;28.30;74.40;;;;;;5041454;28;20841;-72
2023/06/16 11:49:39;;;;;;;7.87;5.90;;;28.30;74.60;;;;;;5035687;28;20799;-72
2023/06/16 11:52:08;;;;;;;6.87;5.43;;;28.00;74.60;;;;;;5038217;28;20453;-72
2023/06/16 11:54:36;;;;;;;7.87;6.37;;;28.20;74.30;;;;;;5043023;28;20483;-73
2023/06/16 11:57:03;;;;;;;7.60;6.80;;;28.10;74.80;;;;;;5038637;28;20548;-71
2023/06/16 11:59:32;;;;;;;7.33;5.70;;;28.30;74.80;;;;;;5045214;28;20500;-72
2023/06/16 12:02:01;;;;;;;6.43;5.30;;;28.40;73.50;;;;;;5043180;28;20446;-70
2023/06/16 12:04:29;;;;;;;7.27;6.50;;;28.60;73.10;;;;;;5041785;28;20447;-72
2023/06/16 12:06:57;;;;;;;6.37;5.77;;;28.30;73.80;;;;;;5040818;28;20445;-73
2023/06/16 12:09:37;;;;;;;9.37;5.60;;;28.40;74.50;;;;;;5036695;28;20448;-72
2023/06/16 12:12:04;;;;;;;6.73;6.10;;;28.40;74.40;;;;;;5038086;28;20503;-74
2023/06/16 12:14:36;;;;;;;11.33;6.63;;;28.60;73.80;;;;;;5041967;28;20497;-73
2023/06/16 12:17:03;;;;;;;6.33;5.83;;;28.40;71.60;;;;;;5036186;28;20449;-72
2023/06/16 12:19:30;;;;;;;8.97;8.00;;;28.20;73.20;;;;;;5043831;28;20443;-72
2023/06/16 12:22:01;;;;;;;7.87;6.60;;;28.10;74.60;;;;;;5044532;28;20461;-73
2023/06/16 12:24:29;;;;;;;6.53;5.93;;;28.10;74.20;;;;;;5050706;28;20466;-72
2023/06/16 12:26:56;;;;;;;7.60;6.53;;;28.10;73.90;;;;;;5047132;28;20520;-72
2023/06/16 12:29:27;;;;;;;6.50;6.00;;;28.20;73.50;;;;;;5037658;28;20495;-72
2023/06/16 12:31:56;;;;;;;6.67;6.07;;;28.10;74.50;;;;;;5041561;28;20444;-72
2023/06/16 12:34:25;;;;;;;7.03;6.53;;;28.10;74.60;;;;;;5032995;28;20465;-72
2023/06/16 12:36:53;;;;;;;6.57;5.97;;;28.10;73.90;;;;;;5037950;28;20470;-72
2023/06/16 12:39:20;;;;;;;7.53;5.70;;;28.10;73.10;;;;;;5035644;28;20446;-73
2023/06/16 12:41:59;;;;;;;6.57;5.53;;;28.10;73.10;;;;;;5038134;28;20529;-73